createdAt,value
2018-08-10T00:00:42.482Z,66.72
2018-08-10T00:01:52.132Z,67.05
2018-08-10T00:03:02.309Z,67.24
2018-08-10T00:04:12.483Z,67.14
2018-08-10T00:05:22.684Z,67.24
2018-08-10T00:06:32.818Z,67.14
2018-08-10T00:07:42.937Z,67.14
2018-08-10T00:08:53.184Z,66.75
2018-08-10T00:10:03.497Z,67.14
2018-08-10T00:11:13.617Z,66.75
2018-08-10T00:12:23.740Z,66.66
2018-08-10T00:13:33.924Z,67.05
2018-08-10T00:14:44.173Z,66.66
2018-08-10T00:15:54.408Z,67.24
2018-08-10T00:17:04.547Z,67.14
2018-08-10T00:18:14.720Z,67.24
2018-08-10T00:19:24.965Z,66.66
2018-08-10T00:20:35.177Z,66.66
2018-08-10T00:21:45.458Z,66.66
2018-08-10T00:22:55.334Z,66.56
2018-08-10T00:24:05.206Z,66.37
2018-08-10T00:25:15.345Z,66.56
2018-08-10T00:26:25.486Z,66.47
2018-08-10T00:27:35.619Z,66.33
2018-08-10T00:28:45.825Z,66.53
2018-08-10T00:29:56.077Z,66.53
2018-08-10T00:31:06.238Z,66.43
2018-08-10T00:32:16.383Z,66.63
2018-08-10T00:33:26.715Z,66.53
2018-08-10T00:34:36.871Z,66.91
2018-08-10T00:35:47.015Z,66.53
2018-08-10T00:36:57.207Z,66.53
2018-08-10T00:38:07.379Z,66.43
2018-08-10T00:39:17.502Z,66.82
2018-08-10T00:40:28.604Z,66.72
2018-08-10T00:41:38.747Z,66.72
2018-08-10T00:42:48.995Z,66.72
2018-08-10T00:43:58.882Z,66.72
2018-08-10T00:45:09.035Z,67.01
2018-08-10T00:46:19.176Z,66.43
2018-08-10T00:47:29.330Z,66.33
2018-08-10T00:48:39.584Z,66.53
2018-08-10T00:49:49.813Z,65.95
2018-08-10T00:50:59.986Z,66.43
2018-08-10T00:52:10.263Z,65.85
2018-08-10T00:53:20.130Z,66.05
2018-08-10T00:54:29.993Z,65.37
2018-08-10T00:55:40.136Z,65.08
2018-08-10T00:56:50.314Z,65.37
2018-08-10T00:58:00.608Z,64.79
2018-08-10T00:59:10.993Z,65.08
2018-08-10T01:00:21.329Z,64.79
2018-08-10T01:01:31.521Z,64.5
2018-08-10T01:02:41.759Z,64.5
2018-08-10T01:03:51.963Z,64.5
2018-08-10T01:05:02.117Z,64.31
2018-08-10T01:06:12.061Z,64.01
2018-08-10T01:07:22.278Z,64.01
2018-08-10T01:08:32.452Z,63.63
2018-08-10T01:09:42.623Z,63.73
2018-08-10T01:10:52.796Z,63.79
2018-08-10T01:12:03.022Z,64.18
2018-08-10T01:13:12.824Z,64.37
2018-08-10T01:14:23.050Z,64.47
2018-08-10T01:15:33.407Z,64.27
2018-08-10T01:16:43.537Z,63.79
2018-08-10T01:17:53.693Z,63.79
2018-08-10T01:19:03.563Z,63.92
2018-08-10T01:20:14.111Z,63.63
2018-08-10T01:21:23.996Z,63.79
2018-08-10T01:22:33.911Z,63.82
2018-08-10T01:23:44.057Z,63.82
2018-08-10T01:24:54.219Z,63.73
2018-08-10T01:26:04.341Z,64.11
2018-08-10T01:27:14.460Z,63.82
2018-08-10T01:28:24.709Z,63.92
2018-08-10T01:29:35.303Z,63.92
2018-08-10T01:30:45.598Z,63.82
2018-08-10T01:31:55.777Z,63.92
2018-08-10T01:33:05.964Z,64.01
2018-08-10T01:34:16.082Z,63.82
2018-08-10T01:35:26.239Z,63.82
2018-08-10T01:36:36.367Z,63.73
2018-08-10T01:37:46.496Z,64.01
2018-08-10T01:38:56.369Z,63.24
2018-08-10T01:40:06.523Z,63.24
2018-08-10T01:41:16.687Z,63.34
2018-08-10T01:42:26.908Z,64.01
2018-08-10T01:43:37.035Z,63.53
2018-08-10T01:44:46.897Z,63.24
2018-08-10T01:45:57.104Z,63.34
2018-08-10T01:47:07.300Z,63.34
2018-08-10T01:48:18.135Z,63.53
2018-08-10T01:49:28.361Z,63.82
2018-08-10T01:50:38.518Z,63.82
2018-08-10T01:51:48.726Z,63.82
2018-08-10T01:52:58.871Z,64.4
2018-08-10T01:54:08.689Z,64.37
2018-08-10T01:55:18.827Z,64.47
2018-08-10T01:56:29.026Z,64.66
2018-08-10T01:57:39.215Z,65.34
2018-08-10T01:58:49.447Z,64.76
2018-08-10T01:59:59.603Z,64.89
2018-08-10T02:01:09.955Z,64.89
2018-08-10T02:02:20.098Z,65.27
2018-08-10T02:03:30.235Z,65.17
2018-08-10T02:04:40.355Z,65.27
2018-08-10T02:05:50.303Z,65.37
2018-08-10T02:07:00.644Z,65.24
2018-08-10T02:08:10.861Z,65.24
2018-08-10T02:09:20.999Z,65.05
2018-08-10T02:10:31.191Z,65.24
2018-08-10T02:11:41.379Z,65.14
2018-08-10T02:12:51.650Z,65.34
2018-08-10T02:14:01.908Z,65.11
2018-08-10T02:15:12.149Z,65.5
2018-08-10T02:16:22.434Z,65.59
2018-08-10T02:17:32.653Z,65.34
2018-08-10T02:18:42.789Z,65.82
2018-08-10T02:19:52.998Z,66.01
2018-08-10T02:21:03.133Z,65.34
2018-08-10T02:22:13.357Z,65.82
2018-08-10T02:23:23.538Z,65.34
2018-08-10T02:24:33.968Z,65.05
2018-08-10T02:25:44.267Z,65.17
2018-08-10T02:26:54.417Z,65.14
2018-08-10T02:28:04.641Z,65.24
2018-08-10T02:29:14.884Z,65.34
2018-08-10T02:30:25.016Z,65.34
2018-08-10T02:31:35.198Z,65.2
2018-08-10T02:32:45.350Z,65.69
2018-08-10T02:33:55.792Z,65.4
2018-08-10T02:35:05.689Z,65.88
2018-08-10T02:36:15.822Z,65.3
2018-08-10T02:37:25.624Z,65.69
2018-08-10T02:38:35.398Z,65.5
2018-08-10T02:39:45.545Z,65.69
2018-08-10T02:40:55.733Z,65.11
2018-08-10T02:42:05.963Z,65.78
2018-08-10T02:43:16.084Z,65.5
2018-08-10T02:44:26.242Z,65.11
2018-08-10T02:45:36.383Z,65.11
2018-08-10T02:46:46.506Z,65.01
2018-08-10T02:47:56.463Z,65.14
2018-08-10T02:49:06.741Z,64.82
2018-08-10T02:50:16.917Z,64.76
2018-08-10T02:51:27.100Z,65.24
2018-08-10T02:52:37.277Z,65.14
2018-08-10T02:53:47.496Z,64.47
2018-08-10T02:54:57.687Z,64.37
2018-08-10T02:56:07.619Z,63.92
2018-08-10T02:57:17.768Z,63.92
2018-08-10T02:58:27.642Z,63.73
2018-08-10T02:59:37.763Z,63.82
2018-08-10T03:00:47.895Z,64.01
2018-08-10T03:01:58.138Z,63.53
2018-08-10T03:03:08.402Z,63.79
2018-08-10T03:04:18.625Z,64.27
2018-08-10T03:05:28.823Z,63.79
2018-08-10T03:06:39.173Z,63.89
2018-08-10T03:07:49.341Z,63.21
2018-08-10T03:08:59.474Z,63.31
2018-08-10T03:10:09.755Z,63.11
2018-08-10T03:11:19.664Z,62.73
2018-08-10T03:12:29.814Z,62.92
2018-08-10T03:13:39.955Z,63.02
2018-08-10T03:14:50.106Z,62.82
2018-08-10T03:16:00.266Z,62.44
2018-08-10T03:17:10.399Z,62.05
2018-08-10T03:18:20.528Z,61.76
2018-08-10T03:19:30.766Z,61.18
2018-08-10T03:20:40.890Z,60.31
2018-08-10T03:21:51.020Z,59.83
2018-08-10T03:23:01.282Z,58.76
2018-08-10T03:24:11.153Z,59.34
2018-08-10T03:25:20.937Z,58.06
2018-08-10T03:26:31.127Z,58.06
2018-08-10T03:27:41.045Z,57.77
2018-08-10T03:28:51.261Z,57.96
2018-08-10T03:30:01.456Z,57.77
2018-08-10T03:31:11.673Z,57.57
2018-08-10T03:32:21.882Z,57.67
2018-08-10T03:33:32.138Z,57.67
2018-08-10T03:34:42.372Z,57.77
2018-08-10T03:35:52.272Z,57.84
2018-08-10T03:37:02.465Z,57.45
2018-08-10T03:38:12.595Z,57.64
2018-08-10T03:39:22.751Z,57.74
2018-08-10T03:40:32.946Z,57.54
2018-08-10T03:41:43.221Z,58.22
2018-08-10T03:42:53.521Z,58.22
2018-08-10T03:44:03.656Z,58.7
2018-08-10T03:45:13.829Z,58.51
2018-08-10T03:46:24.032Z,58.61
2018-08-10T03:47:34.192Z,58.22
2018-08-10T03:48:44.413Z,58.39
2018-08-10T03:49:54.796Z,59.06
2018-08-10T03:51:05.096Z,58.77
2018-08-10T03:52:15.272Z,58.48
2018-08-10T03:53:25.398Z,58.77
2018-08-10T03:54:35.627Z,58.58
2018-08-10T03:55:45.952Z,58.77
2018-08-10T03:56:56.088Z,58.68
2018-08-10T03:58:05.956Z,58.58
2018-08-10T03:59:15.683Z,58.68
2018-08-10T04:00:25.843Z,58.97
2018-08-10T04:01:35.712Z,58.48
2018-08-10T04:02:45.610Z,58.29
2018-08-10T04:03:55.583Z,58.29
2018-08-10T04:05:05.474Z,58.58
2018-08-10T04:06:15.621Z,58.68
2018-08-10T04:07:25.764Z,58.29
2018-08-10T04:08:35.889Z,58.48
2018-08-10T04:09:46.185Z,58.68
2018-08-10T04:10:57.364Z,58.39
2018-08-10T04:12:07.552Z,58.39
2018-08-10T04:13:17.693Z,58.19
2018-08-10T04:14:27.610Z,58.68
2018-08-10T04:15:37.790Z,58.77
2018-08-10T04:16:47.932Z,58.58
2018-08-10T04:17:58.139Z,58.1
2018-08-10T04:19:08.009Z,58.29
2018-08-10T04:20:18.185Z,57.42
2018-08-10T04:21:28.404Z,57.42
2018-08-10T04:22:38.613Z,57.52
2018-08-10T04:23:48.875Z,57.04
2018-08-10T04:24:59.003Z,57.23
2018-08-10T04:26:09.196Z,56.74
2018-08-10T04:27:19.338Z,57.42
2018-08-10T04:28:29.593Z,57.04
2018-08-10T04:29:39.892Z,57.04
2018-08-10T04:30:49.870Z,57.42
2018-08-10T04:32:00.020Z,56.94
2018-08-10T04:33:10.205Z,57.32
2018-08-10T04:34:20.334Z,57.04
2018-08-10T04:35:30.508Z,57.32
2018-08-10T04:36:40.287Z,57.32
2018-08-10T04:37:50.498Z,57.23
2018-08-10T04:39:00.769Z,57.14
2018-08-10T04:40:10.966Z,57.42
2018-08-10T04:41:21.157Z,57.52
2018-08-10T04:42:31.286Z,57.23
2018-08-10T04:43:41.479Z,57.71
2018-08-10T04:44:51.637Z,57.81
2018-08-10T04:46:01.518Z,57.81
2018-08-10T04:47:11.386Z,57.62
2018-08-10T04:48:21.616Z,57.62
2018-08-10T04:49:31.391Z,57.62
2018-08-10T04:50:41.325Z,57.68
2018-08-10T04:51:51.712Z,57.59
2018-08-10T04:53:01.890Z,57.62
2018-08-10T04:54:12.175Z,57.49
2018-08-10T04:55:22.384Z,57.62
2018-08-10T04:56:33.079Z,57.71
2018-08-10T04:57:43.017Z,57.71
2018-08-10T04:58:53.144Z,57.52
2018-08-10T05:00:03.308Z,57.59
2018-08-10T05:01:13.474Z,57.59
2018-08-10T05:02:23.666Z,58.1
2018-08-10T05:03:33.874Z,58.17
2018-08-10T05:04:43.843Z,58.19
2018-08-10T05:05:53.714Z,58.1
2018-08-10T05:07:03.868Z,57.62
2018-08-10T05:08:13.990Z,57.68
2018-08-10T05:09:24.135Z,57.62
2018-08-10T05:10:34.516Z,58
2018-08-10T05:11:44.924Z,58.19
2018-08-10T05:12:54.581Z,58.19
2018-08-10T05:14:04.711Z,58.17
2018-08-10T05:15:14.777Z,58
2018-08-10T05:16:24.970Z,58.17
2018-08-10T05:17:35.149Z,58.17
2018-08-10T05:18:45.324Z,58.26
2018-08-10T05:19:55.192Z,58.26
2018-08-10T05:21:05.331Z,58.65
2018-08-10T05:22:16.469Z,58.55
2018-08-10T05:23:26.325Z,58.45
2018-08-10T05:24:36.454Z,58.84
2018-08-10T05:25:46.769Z,58.65
2018-08-10T05:26:57.095Z,58.17
2018-08-10T05:28:07.246Z,58.65
2018-08-10T05:29:17.375Z,58.29
2018-08-10T05:30:27.203Z,59.06
2018-08-10T05:31:37.344Z,58.29
2018-08-10T05:32:47.495Z,58.65
2018-08-10T05:33:57.712Z,58.65
2018-08-10T05:35:07.923Z,58.65
2018-08-10T05:36:18.279Z,58.58
2018-08-10T05:37:28.463Z,58.26
2018-08-10T05:38:38.807Z,58.55
2018-08-10T05:39:48.984Z,58.29
2018-08-10T05:40:59.317Z,58.58
2018-08-10T05:42:09.489Z,58.29
2018-08-10T05:43:19.260Z,58.45
2018-08-10T05:44:29.426Z,58.36
2018-08-10T05:45:39.590Z,57.97
2018-08-10T05:46:49.609Z,58.29
2018-08-10T05:48:00.392Z,58.55
2018-08-10T05:49:10.549Z,58.07
2018-08-10T05:50:20.725Z,57.59
2018-08-10T05:51:30.925Z,57.49
2018-08-10T05:52:41.197Z,57.87
2018-08-10T05:53:51.044Z,57.49
2018-08-10T05:55:00.948Z,57.29
2018-08-10T05:56:12.047Z,57.14
2018-08-10T05:57:22.221Z,57.01
2018-08-10T05:58:32.515Z,57.1
2018-08-10T05:59:42.654Z,57.01
2018-08-10T06:00:52.597Z,56.72
2018-08-10T06:02:02.764Z,56.81
2018-08-10T06:03:12.976Z,57.01
2018-08-10T06:04:23.033Z,56.81
2018-08-10T06:05:33.357Z,56.81
2018-08-10T06:06:43.515Z,56.91
2018-08-10T06:07:53.724Z,57.01
2018-08-10T06:09:04.094Z,57.01
2018-08-10T06:10:14.232Z,56.81
2018-08-10T06:11:24.149Z,56.81
2018-08-10T06:12:34.284Z,57.1
2018-08-10T06:13:44.443Z,57.01
2018-08-10T06:14:54.684Z,56.72
2018-08-10T06:16:06.238Z,57.1
2018-08-10T06:17:16.102Z,57.1
2018-08-10T06:18:26.232Z,57.01
2018-08-10T06:19:36.576Z,56.72
2018-08-10T06:20:46.913Z,56.79
2018-08-10T06:21:57.081Z,56.98
2018-08-10T06:23:06.980Z,57.49
2018-08-10T06:24:17.220Z,57.1
2018-08-10T06:25:27.513Z,56.81
2018-08-10T06:26:37.413Z,57.01
2018-08-10T06:27:47.613Z,56.72
2018-08-10T06:28:58.551Z,55.94
2018-08-10T06:30:08.421Z,55.66
2018-08-10T06:31:18.306Z,55.76
2018-08-10T06:32:28.435Z,55.76
2018-08-10T06:33:38.647Z,55.56
2018-08-10T06:34:49.046Z,55.94
2018-08-10T06:35:59.181Z,55.94
2018-08-10T06:37:09.071Z,55.1
2018-08-10T06:38:18.941Z,54.91
2018-08-10T06:39:29.081Z,54.82
2018-08-10T06:40:39.214Z,54.79
2018-08-10T06:41:49.208Z,55.18
2018-08-10T06:42:59.411Z,54.82
2018-08-10T06:44:09.691Z,54.6
2018-08-10T06:45:20.066Z,54.6
2018-08-10T06:46:31.033Z,54.88
2018-08-10T06:47:41.209Z,54.79
2018-08-10T06:48:51.468Z,54.6
2018-08-10T06:50:01.668Z,54.98
2018-08-10T06:51:12.076Z,54.98
2018-08-10T06:52:22.901Z,55.2
2018-08-10T06:53:32.788Z,54.53
2018-08-10T06:54:44.014Z,54.82
2018-08-10T06:55:54.541Z,54.62
2018-08-10T06:57:05.312Z,54.05
2018-08-10T06:58:15.685Z,54.62
2018-08-10T06:59:25.856Z,54.53
2018-08-10T07:00:36.311Z,54.82
2018-08-10T07:01:46.917Z,54.62
2018-08-10T07:02:56.864Z,54.05
2018-08-10T07:04:07.065Z,53.56
2018-08-10T07:05:17.232Z,53.85
2018-08-10T07:06:27.106Z,53.56
2018-08-10T07:07:37.567Z,53.47
2018-08-10T07:08:48.247Z,53.66
2018-08-10T07:09:58.447Z,53.47
2018-08-10T07:11:08.645Z,53.08
2018-08-10T07:12:18.853Z,52.69
2018-08-10T07:13:29.277Z,53.01
2018-08-10T07:14:40.044Z,53.01
2018-08-10T07:15:49.828Z,52.72
2018-08-10T07:16:59.958Z,52.91
2018-08-10T07:18:10.104Z,53.01
2018-08-10T07:19:20.244Z,52.62
2018-08-10T07:20:30.362Z,52.62
2018-08-10T07:21:40.622Z,52.91
2018-08-10T07:22:50.883Z,52.91
2018-08-10T07:24:01.045Z,52.72
2018-08-10T07:25:11.262Z,52.04
2018-08-10T07:26:21.140Z,51.65
2018-08-10T07:27:31.256Z,51.75
2018-08-10T07:28:41.381Z,51.75
2018-08-10T07:29:51.669Z,51.78
2018-08-10T07:31:01.891Z,51.59
2018-08-10T07:32:12.046Z,51.39
2018-08-10T07:33:22.283Z,51.1
2018-08-10T07:34:32.660Z,51.29
2018-08-10T07:35:42.792Z,51.29
2018-08-10T07:36:52.981Z,50.62
2018-08-10T07:38:03.110Z,50.71
2018-08-10T07:39:13.234Z,50.62
2018-08-10T07:40:23.361Z,50.71
2018-08-10T07:41:33.807Z,50.52
2018-08-10T07:42:44.066Z,50.23
2018-08-10T07:43:54.241Z,50.43
2018-08-10T07:45:04.141Z,50.04
2018-08-10T07:46:14.274Z,49.65
2018-08-10T07:47:24.550Z,50.13
2018-08-10T07:48:34.804Z,49.85
2018-08-10T07:49:44.979Z,50.52
2018-08-10T07:50:54.865Z,49.65
2018-08-10T07:52:05.062Z,49.65
2018-08-10T07:53:15.349Z,49.65
2018-08-10T07:54:25.583Z,49.95
2018-08-10T07:55:35.746Z,49.85
2018-08-10T07:56:45.874Z,49.87
2018-08-10T07:57:56.051Z,49.39
2018-08-10T07:59:06.088Z,49.1
2018-08-10T08:00:16.715Z,49
2018-08-10T08:01:27.831Z,49.29
2018-08-10T08:02:38.088Z,49.39
2018-08-10T08:03:48.228Z,49.29
2018-08-10T08:04:58.441Z,49.19
2018-08-10T08:06:08.643Z,49.39
2018-08-10T08:07:18.869Z,48.61
2018-08-10T08:08:29.044Z,48.32
2018-08-10T08:09:38.921Z,48.52
2018-08-10T08:10:49.091Z,48.9
2018-08-10T08:11:58.997Z,47.77
2018-08-10T08:13:09.128Z,47.96
2018-08-10T08:14:19.277Z,48.25
2018-08-10T08:15:29.161Z,47.67
2018-08-10T08:16:39.305Z,48.06
2018-08-10T08:17:49.466Z,48.16
2018-08-10T08:18:59.564Z,47.96
2018-08-10T08:20:09.841Z,47.77
2018-08-10T08:21:19.724Z,47.86
2018-08-10T08:22:30.822Z,47.86
2018-08-10T08:23:40.701Z,48.16
2018-08-10T08:24:50.855Z,48.06
2018-08-10T08:26:00.513Z,47.5
2018-08-10T08:27:10.556Z,47.6
2018-08-10T08:28:21.127Z,47.69
2018-08-10T08:29:31.292Z,46.34
2018-08-10T08:30:42.412Z,46.36
2018-08-10T08:31:52.413Z,45.98
2018-08-10T08:33:02.915Z,45.61
2018-08-10T08:34:13.027Z,45.81
2018-08-10T08:35:22.906Z,44.47
2018-08-10T08:36:34.005Z,44.61
2018-08-10T08:37:44.137Z,42.99
2018-08-10T08:38:54.067Z,42.52
2018-08-10T08:40:04.191Z,42.27
2018-08-10T08:41:14.321Z,41.78
2018-08-10T08:42:24.689Z,42.05
2018-08-10T08:43:34.874Z,42.33
2018-08-10T08:44:45.121Z,42.61
2018-08-10T08:45:55.839Z,42.5
2018-08-10T08:47:07.182Z,41.94
2018-08-10T08:48:16.740Z,41.06
2018-08-10T08:49:26.882Z,41.1
2018-08-10T08:50:37.053Z,39.84
2018-08-10T08:51:47.263Z,38.98
2018-08-10T08:52:57.505Z,38.42
2018-08-10T08:54:07.823Z,38.54
2018-08-10T08:55:18.388Z,38.34
2018-08-10T08:56:28.543Z,38.93
2018-08-10T08:57:38.506Z,38.64
2018-08-10T08:58:49.649Z,38.42
2018-08-10T08:59:59.786Z,38.71
2018-08-10T09:01:09.911Z,38.62
2018-08-10T09:02:21.118Z,38.32
2018-08-10T09:03:31.256Z,38.29
2018-08-10T09:04:41.414Z,39.43
2018-08-10T09:05:51.547Z,39.9
2018-08-10T09:07:01.709Z,40.08
2018-08-10T09:08:11.851Z,40.56
2018-08-10T09:09:21.992Z,40.92
2018-08-10T09:10:31.664Z,41.68
2018-08-10T09:11:41.924Z,41.2
2018-08-10T09:12:52.065Z,41
2018-08-10T09:14:01.965Z,40.05
2018-08-10T09:15:12.157Z,39.78
2018-08-10T09:16:22.308Z,39.7
2018-08-10T09:17:32.618Z,38.75
2018-08-10T09:18:43.367Z,37.7
2018-08-10T09:19:53.514Z,37.92
2018-08-10T09:21:03.686Z,37.74
2018-08-10T09:22:13.929Z,35.91
2018-08-10T09:23:24.399Z,35.75
2018-08-10T09:24:34.675Z,35.73
2018-08-10T09:25:44.640Z,34.86
2018-08-10T09:26:54.629Z,34.95
2018-08-10T09:28:05.120Z,35.36
2018-08-10T09:29:15.479Z,34.78
2018-08-10T09:30:25.705Z,35.28
2018-08-10T09:31:35.856Z,34.79
2018-08-10T09:32:45.755Z,34.22
2018-08-10T09:33:55.896Z,33.93
2018-08-10T09:35:05.698Z,34.12
2018-08-10T09:36:15.859Z,34.21
2018-08-10T09:37:26.012Z,33.82
2018-08-10T09:38:36.308Z,33.61
2018-08-10T09:39:46.603Z,34.55
2018-08-10T09:40:56.229Z,34.53
2018-08-10T09:42:06.448Z,34.53
2018-08-10T09:43:17.041Z,34.55
2018-08-10T09:44:27.216Z,35.21
2018-08-10T09:45:37.410Z,35.21
2018-08-10T09:46:47.571Z,34.82
2018-08-10T09:47:57.858Z,34.72
2018-08-10T09:49:08.014Z,34.53
2018-08-10T09:50:18.297Z,33.95
2018-08-10T09:51:28.515Z,34.43
2018-08-10T09:52:38.698Z,34.45
2018-08-10T09:53:49.142Z,34.66
2018-08-10T09:54:59.299Z,33.8
2018-08-10T09:56:09.185Z,33.82
2018-08-10T09:57:19.320Z,33.43
2018-08-10T09:58:29.612Z,33.25
2018-08-10T09:59:40.023Z,32.67
2018-08-10T10:00:50.418Z,32.57
2018-08-10T10:02:00.324Z,32.67
2018-08-10T10:03:10.253Z,32.68
2018-08-10T10:04:20.458Z,32.29
2018-08-10T10:05:30.619Z,31.59
2018-08-10T10:06:41.057Z,30.93
2018-08-10T10:07:51.310Z,31.69
2018-08-10T10:09:01.671Z,31.77
2018-08-10T10:10:11.877Z,31.87
2018-08-10T10:11:22.106Z,32.53
2018-08-10T10:12:31.922Z,32.53
2018-08-10T10:13:41.851Z,32.34
2018-08-10T10:14:52.052Z,32.15
2018-08-10T10:16:02.297Z,31.28
2018-08-10T10:17:12.459Z,31.2
2018-08-10T10:18:23.692Z,30.83
2018-08-10T10:19:33.879Z,29.86
2018-08-10T10:20:44.102Z,29.46
2018-08-10T10:21:54.336Z,29.47
2018-08-10T10:23:04.556Z,28.78
2018-08-10T10:24:14.929Z,28.79
2018-08-10T10:25:25.121Z,29.38
2018-08-10T10:26:35.080Z,29.3
2018-08-10T10:27:45.350Z,29.39
2018-08-10T10:28:55.552Z,29.47
2018-08-10T10:30:05.854Z,29.18
2018-08-10T10:31:16.074Z,29
2018-08-10T10:32:26.293Z,27.54
2018-08-10T10:33:36.668Z,26.77
2018-08-10T10:34:46.866Z,27.55
2018-08-10T10:35:57.113Z,28.14
2018-08-10T10:37:07.259Z,28.23
2018-08-10T10:38:17.480Z,28.23
2018-08-10T10:39:27.663Z,27.65
2018-08-10T10:40:37.870Z,27.37
2018-08-10T10:41:47.762Z,26.88
2018-08-10T10:42:57.972Z,27.17
2018-08-10T10:44:08.192Z,27.17
2018-08-10T10:45:18.364Z,26.68
2018-08-10T10:46:28.523Z,26.59
2018-08-10T10:47:38.715Z,26.98
2018-08-10T10:50:03.362Z,26.77
2018-08-10T10:51:13.190Z,26.68
2018-08-10T10:52:23.526Z,26.39
2018-08-10T10:53:33.481Z,26.31
2018-08-10T10:54:43.770Z,26.03
2018-08-10T10:55:53.702Z,26.22
2018-08-10T10:57:04.029Z,26.04
2018-08-10T10:58:14.336Z,25.74
2018-08-10T10:59:24.511Z,25.84
2018-08-10T11:00:34.874Z,25.73
2018-08-10T11:01:44.805Z,24.85
2018-08-10T11:02:54.970Z,25.13
2018-08-10T11:04:05.161Z,26.2
2018-08-10T11:05:15.381Z,26.38
2018-08-10T11:06:25.761Z,26.57
2018-08-10T11:07:35.949Z,26.38
2018-08-10T11:08:46.208Z,26.67
2018-08-10T11:09:56.440Z,26.39
2018-08-10T11:11:06.631Z,26.39
2018-08-10T11:12:16.839Z,26.29
2018-08-10T11:13:27.058Z,26.38
2018-08-10T11:14:36.993Z,26.28
2018-08-10T11:15:47.150Z,26.38
2018-08-10T11:16:57.307Z,26.38
2018-08-10T11:18:07.688Z,26.29
2018-08-10T11:19:18.157Z,26.39
2018-08-10T11:20:28.363Z,26.31
2018-08-10T11:21:38.597Z,26.01
2018-08-10T11:22:48.422Z,26.01
2018-08-10T11:23:58.643Z,25.81
2018-08-10T11:25:09.261Z,25.82
2018-08-10T11:26:19.985Z,25.73
2018-08-10T11:27:30.169Z,25.34
2018-08-10T11:28:40.382Z,25.24
2018-08-10T11:29:50.814Z,25.23
2018-08-10T11:31:00.994Z,25.23
2018-08-10T11:32:11.305Z,25.51
2018-08-10T11:33:21.544Z,25.32
2018-08-10T11:34:31.131Z,25.12
2018-08-10T11:35:41.531Z,25.22
2018-08-10T11:36:51.683Z,25.79
2018-08-10T11:38:01.893Z,26.07
2018-08-10T11:39:11.761Z,26.07
2018-08-10T11:40:21.928Z,25.79
2018-08-10T11:41:32.162Z,24.92
2018-08-10T11:42:42.640Z,25.12
2018-08-10T11:43:52.929Z,25.22
2018-08-10T11:45:02.562Z,25.42
2018-08-10T11:46:13.046Z,25.23
2018-08-10T11:47:23.236Z,25.23
2018-08-10T11:48:32.880Z,24.65
2018-08-10T11:49:43.046Z,24.85
2018-08-10T11:50:53.192Z,24.75
2018-08-10T11:52:03.083Z,24.36
2018-08-10T11:53:13.245Z,24.65
2018-08-10T11:54:23.429Z,23.69
2018-08-10T11:55:33.648Z,23.98
2018-08-10T11:56:43.850Z,23.59
2018-08-10T11:57:54.999Z,24.08
2018-08-10T11:59:06.756Z,23.99
2018-08-10T12:00:16.924Z,23.8
2018-08-10T12:01:27.807Z,24.01
2018-08-10T12:02:38.014Z,23.42
2018-08-10T12:03:48.194Z,22.83
2018-08-10T12:04:58.381Z,22.34
2018-08-10T12:06:08.683Z,22.83
2018-08-10T12:07:19.245Z,23.69
2018-08-10T12:08:29.439Z,23.98
2018-08-10T12:09:39.478Z,23.77
2018-08-10T12:10:49.708Z,23.97
2018-08-10T12:11:59.854Z,23.39
2018-08-10T12:13:11.007Z,21.83
2018-08-10T12:14:21.144Z,22.8
2018-08-10T12:15:31.287Z,23.47
2018-08-10T12:16:41.628Z,23.94
2018-08-10T12:17:51.789Z,23.74
2018-08-10T12:19:02.064Z,23.93
2018-08-10T12:20:12.476Z,24.42
2018-08-10T12:21:22.203Z,24.8
2018-08-10T12:22:32.394Z,24.91
2018-08-10T12:23:42.993Z,24.81
2018-08-10T12:24:53.258Z,25.1
2018-08-10T12:26:03.445Z,25.07
2018-08-10T12:27:13.230Z,25.82
2018-08-10T12:28:23.400Z,26.2
2018-08-10T12:29:33.581Z,26.4
2018-08-10T12:30:44.343Z,26.3
2018-08-10T12:31:54.516Z,26.31
2018-08-10T12:33:04.737Z,26.12
2018-08-10T12:34:14.541Z,26.13
2018-08-10T12:35:24.689Z,26.23
2018-08-10T12:36:34.883Z,25.95
2018-08-10T12:37:45.041Z,25.85
2018-08-10T12:38:55.235Z,25.65
2018-08-10T12:40:05.182Z,25.47
2018-08-10T12:41:15.347Z,25.57
2018-08-10T12:42:25.516Z,25.67
2018-08-10T12:43:35.687Z,25.76
2018-08-10T12:44:45.595Z,25.95
2018-08-10T12:45:56.722Z,25.57
2018-08-10T12:47:06.866Z,25.08
2018-08-10T12:48:16.774Z,25.37
2018-08-10T12:49:26.967Z,24.89
2018-08-10T12:50:37.109Z,24.78
2018-08-10T12:51:47.325Z,25.07
2018-08-10T12:52:57.541Z,24.87
2018-08-10T12:54:07.721Z,25.73
2018-08-10T12:55:17.911Z,26.01
2018-08-10T12:56:28.244Z,26.3
2018-08-10T12:57:38.329Z,26.4
2018-08-10T12:58:48.525Z,26.29
2018-08-10T12:59:58.779Z,26.3
2018-08-10T13:01:08.964Z,26.29
2018-08-10T13:02:19.148Z,26.48
2018-08-10T13:03:29.374Z,26.18
2018-08-10T13:04:39.654Z,25.7
2018-08-10T13:05:49.876Z,25.7
2018-08-10T13:07:01.084Z,25.9
2018-08-10T13:08:11.343Z,26.19
2018-08-10T13:09:21.515Z,26.09
2018-08-10T13:10:31.486Z,25.9
2018-08-10T13:11:42.054Z,25.62
2018-08-10T13:12:52.302Z,25.71
2018-08-10T13:14:02.496Z,25.81
2018-08-10T13:15:12.408Z,25.81
2018-08-10T13:16:22.815Z,25.71
2018-08-10T13:17:32.991Z,25.81
2018-08-10T13:18:43.178Z,25.71
2018-08-10T13:19:53.456Z,25.99
2018-08-10T13:21:03.682Z,25.99
2018-08-10T13:22:13.996Z,26.18
2018-08-10T13:23:23.929Z,26.37
2018-08-10T13:24:34.167Z,26.65
2018-08-10T13:25:44.330Z,26.26
2018-08-10T13:26:54.231Z,26.36
2018-08-10T13:28:04.431Z,26.26
2018-08-10T13:29:14.675Z,26.15
2018-08-10T13:30:24.920Z,26.83
2018-08-10T13:31:35.247Z,26.53
2018-08-10T13:32:45.491Z,26.92
2018-08-10T13:33:55.668Z,27.01
2018-08-10T13:35:05.878Z,27.79
2018-08-10T13:36:15.757Z,27.97
2018-08-10T13:37:25.660Z,27.87
2018-08-10T13:38:35.799Z,27.98
2018-08-10T13:39:46.011Z,27.69
2018-08-10T13:40:56.312Z,27.69
2018-08-10T13:42:06.914Z,27.79
2018-08-10T13:43:16.942Z,27.8
2018-08-10T13:44:27.167Z,27.9
2018-08-10T13:45:37.509Z,28
2018-08-10T13:46:47.750Z,28.11
2018-08-10T13:47:58.134Z,27.82
2018-08-10T13:49:08.315Z,27.33
2018-08-10T13:50:19.008Z,27.25
2018-08-10T13:51:29.224Z,27.34
2018-08-10T13:52:39.366Z,27.15
2018-08-10T13:53:50.967Z,26.76
2018-08-10T13:55:01.964Z,26.28
2018-08-10T13:56:12.248Z,26.67
2018-08-10T13:57:22.449Z,26.47
2018-08-10T13:58:32.849Z,26.28
2018-08-10T13:59:43.233Z,26.75
2018-08-10T14:00:53.417Z,27.72
2018-08-10T14:02:03.578Z,27.82
2018-08-10T14:03:13.752Z,27.7
2018-08-10T14:04:23.885Z,27.51
2018-08-10T14:05:33.504Z,27.8
2018-08-10T14:06:43.845Z,28
2018-08-10T14:07:54.050Z,28
2018-08-10T14:09:04.206Z,28.19
2018-08-10T14:10:14.363Z,28.39
2018-08-10T14:11:24.540Z,28.08
2018-08-10T14:12:34.833Z,27.98
2018-08-10T14:13:45.031Z,28.18
2018-08-10T14:14:55.280Z,28.28
2018-08-10T14:16:05.734Z,28.08
2018-08-10T14:17:15.950Z,28.19
2018-08-10T14:18:27.190Z,28.57
2018-08-10T14:19:37.240Z,28.18
2018-08-10T14:20:47.409Z,28.29
2018-08-10T14:21:57.648Z,28.18
2018-08-10T14:23:07.812Z,28.47
2018-08-10T14:24:18.114Z,28.76
2018-08-10T14:25:28.279Z,28.76
2018-08-10T14:26:39.512Z,28.18
2018-08-10T14:27:49.865Z,28.66
2018-08-10T14:29:00.396Z,28.57
2018-08-10T14:30:10.302Z,28.47
2018-08-10T14:31:20.506Z,28.57
2018-08-10T14:32:30.667Z,28.57
2018-08-10T14:33:40.890Z,28.38
2018-08-10T14:34:51.125Z,28.07
2018-08-10T14:36:01.365Z,28.17
2018-08-10T14:37:11.527Z,28.83
2018-08-10T14:38:21.727Z,28.74
2018-08-10T14:39:31.893Z,28.64
2018-08-10T14:40:42.338Z,28.54
2018-08-10T14:41:52.589Z,28.34
2018-08-10T14:43:02.747Z,28.05
2018-08-10T14:44:12.907Z,28.14
2018-08-10T14:45:23.158Z,28.33
2018-08-10T14:46:33.370Z,28.63
2018-08-10T14:47:44.720Z,28.7
2018-08-10T14:48:54.938Z,29.1
2018-08-10T14:50:05.153Z,29.19
2018-08-10T14:51:15.545Z,29.19
2018-08-10T14:52:25.455Z,29.1
2018-08-10T14:53:35.748Z,28.61
2018-08-10T14:54:46.426Z,28.7
2018-08-10T14:55:56.625Z,29.28
2018-08-10T14:57:06.878Z,28.8
2018-08-10T14:58:17.053Z,29.5
2018-08-10T14:59:27.204Z,29.5
2018-08-10T15:00:37.475Z,29.4
2018-08-10T15:01:47.969Z,28.81
2018-08-10T15:02:58.375Z,29.01
2018-08-10T15:04:08.512Z,29.11
2018-08-10T15:05:18.699Z,28.91
2018-08-10T15:06:28.988Z,28.63
2018-08-10T15:07:39.447Z,28.54
2018-08-10T15:08:49.622Z,28.93